Terminal Aerodrome Forecast
Issued by NWS Memphis, TN

Home | Current Version | Previous Version | Text Only | Print | Product List | Glossary On
Versions: 1 2 3 4 5 6 7 8 9 10 11 12 13 14 15 16 17
000
FTUS44 KMEG 022339
TAFJBR
TAF
KJBR 022339Z 0300/0324 33006KT P6SM FEW030 BKN040
     FM030200 36006KT P6SM BKN035
     FM031200 36005KT P6SM OVC030
     FM031800 33007KT P6SM BKN050=

USA.gov is the U.S. government's official web portal to all federal, state and local government web resources and services.